Airfield :
LOGIN :

Register | Disclaimer

   EN    FR    IT 

 










Legend :    VFR   Marginal VFR   IFR   Intensive IFR   Very Intensive IFR
Visi :
Ceiling :
>= 8 km
>= 3000ft
5 to 8 km
1000 to 3000 ft
1500m to 5 km
500 to 1000 ft
800 to 1500m
200 to 500 ft
< 800m
< 200 ft
Symbols :   Thunderstorms  Fog  Heavy snow  Heavy precipitations  Wind > 20 kt
SIGMETs :     Misc.  Thunderstorms  Icing  Turbulence  Mountain Waves  Volcanic Ashes






- Airport Elevation : 147 ft
- IATA code : DUS


EDDL - Düsseldorf Int.

CURRENT METAR :
  • 171150Z 16005KT 120V180 2500 -DZ BR FEW002 BKN004 01/01 Q1018 R23L/CLRD// R05R/CLRD// BECMG 23005KT 4000 BKN007

EXPIRED METARs :
  • 171120Z 15007KT 2500 -DZ BR BKN003 01/00 Q1018 R23L/CLRD// R05R/CLRD// TEMPO 3500 BKN005
  • 171050Z 16004KT 130V190 3000 -DZ BR BKN004 01/00 Q1018 R23L/290195 R05R/290195 TEMPO BKN007
  • 171020Z 18004KT 2200 -RADZ BR SCT003 OVC005 01/00 Q1018 R23L/290195 R05R/290195 TEMPO 3500 BKN004
  • 170950Z 16004KT 130V220 2200 -RADZ BR FEW003 OVC006 00/M00 Q1017 R23L/290195 R05R/290195 TEMPO 3500
  • 170920Z 17004KT 3200 -SNRA BR SCT004 BKN006 OVC008 00/M00 Q1017 REFZRA R23L/290195 R05R/290195 TEMPO BKN004

TAF TAF EDDL
Valid from the 17 at 12:00 until the 18 at 18:00 UTC


171100Z 1712/1818 26005KT 2500 -RADZ BKN004
BECMG 1712/1715 6000 OVC010
TEMPO 1715/1809 4000 -DZ BR BKN007
BECMG 1809/1812 23011KT BKN020



MET'MAP, your aeronautical weather chart ! - Copyright ORBIFLY December 2007 - Disclaimer

ORBIFLY MET'MAP TEAM :

Programming & Development : Alexandra Zaïnal
Concept & original design : Baudouin d'Aumeries
Assistance for programming : Marc-Olivier Méhu
Technical & hardware support : Manuel Goepfert

Contact : metmap@orbifly.com




SOURCES & CREDITS :

   NOAA